Dutton, Montana
Current Conditions -  °F | °C
As of 10:53 PM on Saturday 20 Dec 2014 (Local Time) from KGTF Reporting Station
Clear Clear  
Wind Chill: 31°   Ceiling: Unl
Heat Index: 39°   Visibility: 10mi
Dew Point: 27°   Wind: 14mph
Humidity: 62%   Direction: 190°S
Pressure: 29.53"   Gusts: NA
Location:  47.84°N, 111.71°W
Report Text: KGTF 210553Z 19012KT 10SM CLR 04/M03 A2953 RMK AO2 SLP022 T00391028 10039 20006 58030
Loading
Personal Weather Stations






























Interactive Weather Map New forecast layout! Learn more

10-Day Weather Forecast

Advertisements
Track Severe Weather on mobile